createdAt,value
2023-04-28T00:00:43.192Z,38.49
2023-04-28T00:03:09.659Z,38.49
2023-04-28T00:05:36.197Z,38.96
2023-04-28T00:08:03.370Z,38.94
2023-04-28T00:10:30.637Z,39.25
2023-04-28T00:12:56.930Z,39.07
2023-04-28T00:15:23.221Z,39.35
2023-04-28T00:17:50.371Z,39.78
2023-04-28T00:20:16.798Z,39.74
2023-04-28T00:22:43.120Z,39.09
2023-04-28T00:25:09.528Z,39.29
2023-04-28T00:27:35.991Z,39.14
2023-04-28T00:30:02.359Z,38.94
2023-04-28T00:32:29.008Z,38.54
2023-04-28T00:34:56.754Z,38.97
2023-04-28T00:37:23.109Z,39.47
2023-04-28T00:39:49.400Z,39.20
2023-04-28T00:42:15.882Z,38.90
2023-04-28T00:44:42.288Z,39.01
2023-04-28T00:47:08.633Z,39.05
2023-04-28T00:49:35.358Z,39.05
2023-04-28T00:52:03.666Z,38.96
2023-04-28T00:54:29.988Z,39.69
2023-04-28T00:56:56.946Z,40.00
2023-04-28T00:59:23.305Z,39.46
2023-04-28T01:01:49.730Z,38.99
2023-04-28T01:04:17.247Z,39.11
2023-04-28T01:06:43.771Z,38.85
2023-04-28T01:09:10.101Z,39.08
2023-04-28T01:11:37.430Z,38.42
2023-04-28T01:14:03.729Z,38.02
2023-04-28T01:16:32.371Z,38.52
2023-04-28T01:18:58.766Z,38.10
2023-04-28T01:21:32.426Z,38.30
2023-04-28T01:23:58.993Z,38.19
2023-04-28T01:26:25.307Z,38.15
2023-04-28T01:28:51.588Z,38.81
2023-04-28T01:31:17.874Z,38.95
2023-04-28T01:33:44.264Z,38.63
2023-04-28T01:36:10.578Z,39.26
2023-04-28T01:38:36.886Z,38.85
2023-04-28T01:41:03.334Z,38.48
2023-04-28T01:43:29.641Z,38.17
2023-04-28T01:45:56.267Z,38.49
2023-04-28T01:48:22.562Z,37.56
2023-04-28T01:50:48.874Z,37.75
2023-04-28T01:53:15.375Z,38.18
2023-04-28T01:55:41.727Z,38.34
2023-04-28T01:58:08.011Z,38.76
2023-04-28T02:00:34.310Z,38.54
2023-04-28T02:03:00.680Z,39.10
2023-04-28T02:05:27.200Z,40.23
2023-04-28T02:07:53.568Z,39.94
2023-04-28T02:10:19.871Z,40.20
2023-04-28T02:12:46.153Z,40.18
2023-04-28T02:15:12.450Z,39.91
2023-04-28T02:17:38.764Z,40.10
2023-04-28T02:20:05.348Z,39.62
2023-04-28T02:22:31.726Z,40.44
2023-04-28T02:24:58.018Z,40.43
2023-04-28T02:27:24.319Z,40.58
2023-04-28T02:29:50.611Z,39.68
2023-04-28T02:32:16.908Z,40.55
2023-04-28T02:34:43.189Z,40.41
2023-04-28T02:37:09.463Z,39.79
2023-04-28T02:39:35.933Z,40.48
2023-04-28T02:42:03.655Z,39.72
2023-04-28T02:44:29.946Z,39.60
2023-04-28T02:46:56.521Z,39.23
2023-04-28T02:49:22.860Z,38.48
2023-04-28T02:51:49.139Z,39.64
2023-04-28T02:54:15.757Z,39.76
2023-04-28T02:56:42.327Z,39.04
2023-04-28T02:59:08.631Z,39.23
2023-04-28T03:01:35.023Z,39.16
2023-04-28T03:04:01.521Z,38.97
2023-04-28T03:06:28.263Z,39.41
2023-04-28T03:08:54.617Z,39.30
2023-04-28T03:11:21.531Z,40.25
2023-04-28T03:13:47.834Z,39.58
2023-04-28T03:16:14.190Z,39.27
2023-04-28T03:18:40.531Z,40.20
2023-04-28T03:21:06.843Z,39.74
2023-04-28T03:23:33.138Z,39.71
2023-04-28T03:25:59.432Z,40.34
2023-04-28T03:28:26.331Z,39.84
2023-04-28T03:30:52.634Z,39.49
2023-04-28T03:33:19.020Z,39.24
2023-04-28T03:35:45.348Z,39.11
2023-04-28T03:38:11.662Z,38.06
2023-04-28T03:40:38.068Z,38.32
2023-04-28T03:43:05.020Z,38.37
2023-04-28T03:45:31.514Z,38.69
2023-04-28T03:47:57.924Z,40.19
2023-04-28T03:50:26.051Z,40.32
2023-04-28T03:52:52.933Z,41.41
2023-04-28T03:55:19.223Z,42.37
2023-04-28T03:57:45.567Z,44.96
2023-04-28T04:00:12.301Z,45.97
2023-04-28T04:02:38.791Z,46.05
2023-04-28T04:05:05.534Z,45.06
2023-04-28T04:07:32.106Z,44.28
2023-04-28T04:09:58.391Z,45.37
2023-04-28T04:12:24.695Z,43.97
2023-04-28T04:14:50.970Z,43.92
2023-04-28T04:17:17.302Z,44.45
2023-04-28T04:19:43.591Z,44.96
2023-04-28T04:22:09.895Z,44.85
2023-04-28T04:24:36.208Z,44.22
2023-04-28T04:27:02.489Z,45.61
2023-04-28T04:29:28.824Z,46.21
2023-04-28T04:31:55.247Z,46.54
2023-04-28T04:34:21.770Z,46.19
2023-04-28T04:36:48.040Z,46.30
2023-04-28T04:39:14.324Z,46.01
2023-04-28T04:41:42.112Z,47.08
2023-04-28T04:44:08.440Z,47.21
2023-04-28T04:46:34.984Z,47.26
2023-04-28T04:49:01.694Z,46.99
2023-04-28T04:51:28.083Z,44.94
2023-04-28T04:53:54.963Z,44.80
2023-04-28T04:56:21.236Z,44.40
2023-04-28T04:58:47.839Z,44.77
2023-04-28T05:01:14.120Z,45.84
2023-04-28T05:03:40.663Z,46.23
2023-04-28T05:06:07.137Z,45.79
2023-04-28T05:08:33.440Z,45.37
2023-04-28T05:10:59.783Z,45.52
2023-04-28T05:13:26.259Z,45.60
2023-04-28T05:15:52.537Z,43.60
2023-04-28T05:18:18.872Z,44.12
2023-04-28T05:20:45.209Z,45.33
2023-04-28T05:23:11.576Z,42.83
2023-04-28T05:25:37.913Z,43.84
2023-04-28T05:28:07.452Z,44.21
2023-04-28T05:30:33.900Z,44.30
2023-04-28T05:33:00.396Z,43.11
2023-04-28T05:35:26.764Z,44.25
2023-04-28T05:37:53.051Z,43.52
2023-04-28T05:40:19.344Z,43.51
2023-04-28T05:42:45.662Z,43.48
2023-04-28T05:45:12.016Z,42.24
2023-04-28T05:47:38.325Z,43.23
2023-04-28T05:50:04.893Z,42.83
2023-04-28T05:52:31.187Z,42.00
2023-04-28T05:54:57.479Z,42.18
2023-04-28T05:57:23.766Z,41.92
2023-04-28T05:59:50.120Z,42.53
2023-04-28T06:02:16.872Z,42.40
2023-04-28T06:04:44.329Z,41.48
2023-04-28T06:07:11.061Z,44.21
2023-04-28T06:09:37.342Z,43.51
2023-04-28T06:12:03.949Z,41.46
2023-04-28T06:14:30.233Z,40.55
2023-04-28T06:16:56.524Z,42.04
2023-04-28T06:19:22.816Z,42.15
2023-04-28T06:21:51.513Z,42.20
2023-04-28T06:24:18.119Z,40.96
2023-04-28T06:26:44.624Z,41.02
2023-04-28T06:29:11.237Z,40.26
2023-04-28T06:31:37.578Z,40.14
2023-04-28T06:34:03.899Z,40.40
2023-04-28T06:36:30.189Z,40.52
2023-04-28T06:38:56.849Z,40.57
2023-04-28T06:41:23.450Z,42.04
2023-04-28T06:43:50.865Z,42.97
2023-04-28T06:46:17.174Z,43.56
2023-04-28T06:48:43.492Z,43.22
2023-04-28T06:51:09.843Z,44.10
2023-04-28T06:53:36.152Z,44.03
2023-04-28T06:56:02.935Z,44.95
2023-04-28T06:58:29.477Z,45.11
2023-04-28T07:00:56.232Z,45.62
2023-04-28T07:03:22.746Z,46.19
2023-04-28T07:05:49.710Z,45.48
2023-04-28T07:08:17.522Z,45.78
2023-04-28T07:10:43.815Z,45.84
2023-04-28T07:13:10.177Z,46.41
2023-04-28T07:15:36.928Z,46.71
2023-04-28T07:18:03.331Z,45.90
2023-04-28T07:20:29.670Z,45.52
2023-04-28T07:22:55.954Z,43.32
2023-04-28T07:25:22.235Z,42.46
2023-04-28T07:27:48.616Z,42.65
2023-04-28T07:30:26.795Z,41.81
2023-04-28T07:32:54.040Z,41.13
2023-04-28T07:35:20.371Z,41.75
2023-04-28T07:37:46.644Z,41.66
2023-04-28T07:40:13.027Z,40.94
2023-04-28T07:42:39.329Z,40.31
2023-04-28T07:45:05.925Z,42.79
2023-04-28T07:47:32.293Z,40.79
2023-04-28T07:50:00.599Z,43.16
2023-04-28T07:52:26.939Z,37.21
2023-04-28T07:54:53.288Z,38.27
2023-04-28T07:57:19.591Z,40.97
2023-04-28T07:59:45.888Z,41.93
2023-04-28T08:02:13.458Z,41.02
2023-04-28T08:04:40.012Z,42.11
2023-04-28T08:07:06.519Z,42.80
2023-04-28T08:09:32.816Z,43.58
2023-04-28T08:11:59.121Z,44.37
2023-04-28T08:14:25.439Z,42.20
2023-04-28T08:16:51.747Z,35.54
2023-04-28T08:19:18.446Z,38.21
2023-04-28T08:21:44.742Z,42.16
2023-04-28T08:24:11.230Z,42.76
2023-04-28T08:26:37.998Z,41.78
2023-04-28T08:29:04.425Z,42.34
2023-04-28T08:31:30.755Z,41.78
2023-04-28T08:33:57.086Z,42.61
2023-04-28T08:36:31.627Z,42.76
2023-04-28T08:38:59.370Z,43.15
2023-04-28T08:41:29.852Z,42.30
2023-04-28T08:43:56.300Z,41.41
2023-04-28T08:46:22.771Z,41.16
2023-04-28T08:48:49.447Z,43.52
2023-04-28T08:51:16.720Z,42.13
2023-04-28T08:54:11.759Z,41.85
2023-04-28T08:56:32.171Z,39.28
2023-04-28T08:59:00.343Z,40.75
2023-04-28T09:01:26.621Z,39.55
2023-04-28T09:03:54.077Z,39.74
2023-04-28T09:06:21.693Z,39.46
2023-04-28T09:08:48.125Z,40.63
2023-04-28T09:11:14.743Z,40.10
2023-04-28T09:13:41.197Z,40.38
2023-04-28T09:16:07.626Z,40.48
2023-04-28T09:18:33.951Z,39.59
2023-04-28T09:21:07.171Z,38.69
2023-04-28T09:23:33.952Z,37.90
2023-04-28T09:26:07.451Z,40.69
2023-04-28T09:28:34.165Z,40.20
2023-04-28T09:31:00.589Z,40.56
2023-04-28T09:33:27.202Z,39.64
2023-04-28T09:35:53.516Z,38.42
2023-04-28T09:38:20.487Z,38.71
2023-04-28T09:41:05.012Z,38.67
2023-04-28T09:43:32.184Z,35.98
2023-04-28T09:46:01.098Z,36.81
2023-04-28T09:48:28.033Z,39.66
2023-04-28T09:50:55.382Z,39.94
2023-04-28T09:53:22.772Z,38.92
2023-04-28T09:55:50.158Z,40.73
2023-04-28T09:58:16.955Z,38.00
2023-04-28T10:00:43.288Z,37.10
2023-04-28T10:03:09.928Z,40.38
2023-04-28T10:05:36.919Z,37.83
2023-04-28T10:08:03.644Z,37.64
2023-04-28T10:10:29.928Z,37.77
2023-04-28T10:12:56.250Z,38.08
2023-04-28T10:15:23.176Z,37.25
2023-04-28T10:17:49.604Z,39.16
2023-04-28T10:20:15.948Z,37.05
2023-04-28T10:22:51.688Z,37.59
2023-04-28T10:25:31.332Z,36.63
2023-04-28T10:27:57.824Z,35.87
2023-04-28T10:30:27.974Z,36.75
2023-04-28T10:33:14.263Z,36.84
2023-04-28T10:35:44.313Z,34.87
2023-04-28T10:38:14.654Z,36.80
2023-04-28T10:40:41.513Z,38.25
2023-04-28T10:43:11.179Z,36.32
2023-04-28T10:45:56.174Z,36.10
2023-04-28T10:48:23.856Z,35.74
2023-04-28T10:51:05.898Z,36.06
2023-04-28T10:53:48.868Z,36.00
2023-04-28T10:56:19.290Z,34.35
2023-04-28T10:58:46.381Z,36.02
2023-04-28T11:01:19.182Z,35.97
2023-04-28T11:03:46.543Z,36.38
2023-04-28T11:06:34.351Z,36.06
2023-04-28T11:09:14.028Z,36.27
2023-04-28T11:12:00.582Z,35.80
2023-04-28T11:14:35.869Z,35.12
2023-04-28T11:17:05.610Z,35.02
2023-04-28T11:19:38.912Z,35.07
2023-04-28T11:22:09.886Z,35.93
2023-04-28T11:24:36.239Z,36.18
2023-04-28T11:27:02.532Z,36.56
2023-04-28T11:29:38.427Z,36.94
2023-04-28T11:32:08.238Z,36.92
2023-04-28T11:34:34.917Z,36.33
2023-04-28T11:37:01.240Z,36.73
2023-04-28T11:39:31.326Z,37.35
2023-04-28T11:41:58.157Z,36.10
2023-04-28T11:44:25.357Z,36.95
2023-04-28T11:46:55.811Z,36.89
2023-04-28T11:49:24.403Z,36.88
2023-04-28T11:51:51.054Z,38.01
2023-04-28T11:54:24.010Z,37.50
2023-04-28T11:56:50.507Z,38.69
2023-04-28T11:59:17.006Z,36.99
2023-04-28T12:01:46.610Z,37.53
2023-04-28T12:04:13.089Z,37.96
2023-04-28T12:06:39.821Z,37.83
2023-04-28T12:09:15.943Z,38.10
2023-04-28T12:11:54.732Z,38.72
2023-04-28T12:14:21.227Z,37.95
2023-04-28T12:16:49.773Z,38.81
2023-04-28T12:19:16.373Z,39.52
2023-04-28T12:21:42.757Z,38.75
2023-04-28T12:24:15.266Z,39.01
2023-04-28T12:26:42.014Z,38.84
2023-04-28T12:29:10.039Z,39.00
2023-04-28T12:31:52.988Z,40.60
2023-04-28T12:34:19.462Z,40.53
2023-04-28T12:36:46.486Z,40.22
2023-04-28T12:39:16.664Z,40.17
2023-04-28T12:41:43.675Z,41.13
2023-04-28T12:44:09.991Z,40.98
2023-04-28T12:46:37.384Z,40.45
2023-04-28T12:49:03.821Z,40.20
2023-04-28T12:51:30.477Z,40.65
2023-04-28T12:53:56.774Z,41.02
2023-04-28T12:56:23.676Z,40.47
2023-04-28T12:58:49.958Z,41.11
2023-04-28T13:01:16.465Z,40.45
2023-04-28T13:03:44.145Z,40.71
2023-04-28T13:06:10.991Z,41.12
2023-04-28T13:08:37.340Z,41.25
2023-04-28T13:11:12.817Z,40.56
2023-04-28T13:13:47.979Z,40.04
2023-04-28T13:16:14.679Z,39.98
2023-04-28T13:18:41.039Z,40.50
2023-04-28T13:21:07.330Z,41.36
2023-04-28T13:23:33.669Z,39.63
2023-04-28T13:26:00.032Z,40.02
2023-04-28T13:28:26.410Z,40.02
2023-04-28T13:30:52.764Z,40.14
2023-04-28T13:33:19.063Z,39.81
2023-04-28T13:35:45.742Z,39.09
2023-04-28T13:38:12.084Z,39.39
2023-04-28T13:40:38.464Z,40.57
2023-04-28T13:43:04.760Z,40.10
2023-04-28T13:45:31.538Z,40.02
2023-04-28T13:47:58.116Z,40.08
2023-04-28T13:50:24.416Z,40.51
2023-04-28T13:52:51.094Z,40.30
2023-04-28T13:55:17.384Z,39.17
2023-04-28T13:57:43.726Z,39.19
2023-04-28T14:00:10.436Z,39.08
2023-04-28T14:02:37.451Z,39.17
2023-04-28T14:05:03.936Z,39.06
2023-04-28T14:07:30.534Z,39.13
2023-04-28T14:09:56.865Z,39.51
2023-04-28T14:12:23.141Z,38.62
2023-04-28T14:14:49.724Z,38.89
2023-04-28T14:17:16.174Z,38.18
2023-04-28T14:19:42.440Z,37.89
2023-04-28T14:22:08.759Z,38.00
2023-04-28T14:24:35.435Z,38.51
2023-04-28T14:27:01.725Z,39.35
2023-04-28T14:29:28.027Z,39.35
2023-04-28T14:31:54.321Z,38.94
2023-04-28T14:34:20.719Z,38.63
2023-04-28T14:36:48.154Z,38.56
2023-04-28T14:39:14.460Z,39.25
2023-04-28T14:41:40.764Z,38.68
2023-04-28T14:44:08.078Z,39.24
2023-04-28T14:46:34.447Z,39.44
2023-04-28T14:49:00.768Z,39.74
2023-04-28T14:51:27.662Z,39.45
2023-04-28T14:53:54.387Z,38.15
2023-04-28T14:56:20.708Z,38.04
2023-04-28T14:58:47.363Z,36.87
2023-04-28T15:01:13.694Z,37.95
2023-04-28T15:03:40.139Z,37.80
2023-04-28T15:06:06.569Z,38.54
2023-04-28T15:08:33.198Z,38.86
2023-04-28T15:10:59.484Z,38.43
2023-04-28T15:13:27.752Z,38.40
2023-04-28T15:15:54.081Z,38.00
2023-04-28T15:18:20.994Z,38.51
2023-04-28T15:20:47.731Z,38.45
2023-04-28T15:23:14.161Z,38.31
2023-04-28T15:25:40.987Z,39.09
2023-04-28T15:28:07.813Z,38.32
2023-04-28T15:30:34.089Z,37.51
2023-04-28T15:33:00.630Z,37.83
2023-04-28T15:35:27.153Z,37.65
2023-04-28T15:37:55.410Z,38.17
2023-04-28T15:40:21.931Z,37.22
2023-04-28T15:42:54.296Z,37.58
2023-04-28T15:45:20.788Z,38.90
2023-04-28T15:47:47.345Z,39.04
2023-04-28T15:50:13.857Z,37.68
2023-04-28T15:52:40.785Z,37.09
2023-04-28T15:55:08.335Z,39.25
2023-04-28T15:57:34.619Z,38.15
2023-04-28T16:00:00.904Z,39.70
2023-04-28T16:02:27.311Z,42.13
2023-04-28T16:04:53.864Z,42.02
2023-04-28T16:07:20.346Z,40.33
2023-04-28T16:09:46.768Z,40.92
2023-04-28T16:12:13.051Z,41.17
2023-04-28T16:14:39.357Z,39.96
2023-04-28T16:17:05.715Z,36.32
2023-04-28T16:19:32.062Z,35.99
2023-04-28T16:21:58.364Z,35.35
2023-04-28T16:24:24.688Z,37.47
2023-04-28T16:26:51.252Z,36.78
2023-04-28T16:29:17.760Z,37.61
2023-04-28T16:31:44.643Z,37.76
2023-04-28T16:34:11.975Z,37.60
2023-04-28T16:36:40.000Z,38.05
2023-04-28T16:39:06.463Z,37.65
2023-04-28T16:41:32.784Z,36.95
2023-04-28T16:43:59.107Z,37.10
2023-04-28T16:46:25.501Z,37.39
2023-04-28T16:48:51.948Z,37.60
2023-04-28T16:51:18.257Z,37.30
2023-04-28T16:53:44.607Z,37.11
2023-04-28T16:56:11.291Z,36.36
2023-04-28T16:58:37.634Z,37.10
2023-04-28T17:01:04.147Z,36.59
2023-04-28T17:03:30.834Z,36.55
2023-04-28T17:05:57.280Z,36.43
2023-04-28T17:08:23.549Z,36.33
2023-04-28T17:10:49.850Z,36.21
2023-04-28T17:13:16.166Z,36.51
2023-04-28T17:15:42.589Z,35.77
2023-04-28T17:18:08.949Z,36.01
2023-04-28T17:20:35.519Z,36.62
2023-04-28T17:23:02.122Z,37.61
2023-04-28T17:25:29.232Z,36.47
2023-04-28T17:27:55.619Z,36.82
2023-04-28T17:30:21.986Z,37.14
2023-04-28T17:32:48.343Z,37.19
2023-04-28T17:35:14.690Z,36.65
2023-04-28T17:37:41.889Z,35.09
2023-04-28T17:40:08.531Z,36.18
2023-04-28T17:42:34.935Z,36.14
2023-04-28T17:45:01.467Z,36.01
2023-04-28T17:47:27.818Z,36.60
2023-04-28T17:49:54.211Z,36.91
2023-04-28T17:52:20.650Z,37.27
2023-04-28T17:54:47.019Z,36.84
2023-04-28T17:57:13.765Z,37.42
2023-04-28T17:59:40.587Z,37.21
2023-04-28T18:02:10.443Z,37.12
2023-04-28T18:04:37.136Z,37.41
2023-04-28T18:07:03.505Z,37.75
2023-04-28T18:09:32.724Z,37.13
2023-04-28T18:11:59.028Z,37.48
2023-04-28T18:14:25.746Z,37.71
2023-04-28T18:16:52.237Z,38.19
2023-04-28T18:19:18.502Z,37.78
2023-04-28T18:21:44.791Z,37.76
2023-04-28T18:24:11.079Z,37.80
2023-04-28T18:26:37.451Z,37.21
2023-04-28T18:29:03.744Z,37.27
2023-04-28T18:31:30.239Z,38.01
2023-04-28T18:33:57.014Z,38.18
2023-04-28T18:36:23.332Z,38.40
2023-04-28T18:38:49.670Z,38.42
2023-04-28T18:41:16.612Z,38.08
2023-04-28T18:43:43.061Z,37.28
2023-04-28T18:46:09.434Z,37.19
2023-04-28T18:48:35.790Z,36.82
2023-04-28T18:51:03.441Z,37.30
2023-04-28T18:53:30.363Z,37.68
2023-04-28T18:55:58.019Z,38.07
2023-04-28T18:58:25.006Z,37.54
2023-04-28T19:00:52.073Z,37.83
2023-04-28T19:03:18.565Z,38.12
2023-04-28T19:05:45.103Z,38.10
2023-04-28T19:08:12.126Z,38.97
2023-04-28T19:10:38.466Z,39.39
2023-04-28T19:13:04.753Z,39.94
2023-04-28T19:15:32.851Z,40.16
2023-04-28T19:17:59.305Z,40.27
2023-04-28T19:20:25.992Z,39.66
2023-04-28T19:22:52.690Z,40.20
2023-04-28T19:25:18.984Z,40.13
2023-04-28T19:27:45.335Z,40.45
2023-04-28T19:30:12.347Z,40.36
2023-04-28T19:32:39.142Z,39.92
2023-04-28T19:35:05.730Z,39.96
2023-04-28T19:37:32.362Z,40.08
2023-04-28T19:39:58.650Z,40.25
2023-04-28T19:42:25.001Z,39.78
2023-04-28T19:44:55.125Z,39.70
2023-04-28T19:47:24.783Z,40.54
2023-04-28T19:49:51.839Z,40.77
2023-04-28T19:52:19.051Z,42.27
2023-04-28T19:54:45.413Z,44.51
2023-04-28T19:57:11.711Z,46.86
2023-04-28T19:59:37.981Z,47.01
2023-04-28T20:02:07.762Z,47.85
2023-04-28T20:04:37.536Z,48.22
2023-04-28T20:07:04.451Z,49.52
2023-04-28T20:09:31.414Z,49.79
2023-04-28T20:11:57.767Z,50.90
2023-04-28T20:14:24.049Z,52.13
2023-04-28T20:16:50.347Z,51.90
2023-04-28T20:19:17.002Z,50.73
2023-04-28T20:21:43.434Z,51.31
2023-04-28T20:24:09.889Z,50.71
2023-04-28T20:26:36.717Z,51.08
2023-04-28T20:29:03.216Z,53.00
2023-04-28T20:31:29.630Z,53.01
2023-04-28T20:33:56.022Z,52.50
2023-04-28T20:36:22.338Z,54.29
2023-04-28T20:38:49.024Z,54.46
2023-04-28T20:41:15.394Z,55.54
2023-04-28T20:43:42.010Z,57.27
2023-04-28T20:46:10.059Z,57.50
2023-04-28T20:48:36.724Z,57.29
2023-04-28T20:51:03.666Z,57.20
2023-04-28T20:53:31.420Z,57.75
2023-04-28T20:55:59.219Z,58.21
2023-04-28T20:58:25.988Z,57.91
2023-04-28T21:00:53.125Z,59.06
2023-04-28T21:03:23.374Z,58.89
2023-04-28T21:05:49.747Z,59.19
2023-04-28T21:08:16.395Z,58.92
2023-04-28T21:10:42.711Z,59.35
2023-04-28T21:13:09.694Z,60.00
2023-04-28T21:15:36.468Z,59.30
2023-04-28T21:18:02.819Z,59.15
2023-04-28T21:20:29.196Z,60.30
2023-04-28T21:22:55.608Z,60.51
2023-04-28T21:25:21.901Z,60.53
2023-04-28T21:27:48.379Z,59.96
2023-04-28T21:30:15.383Z,60.06
2023-04-28T21:32:42.074Z,60.18
2023-04-28T21:35:08.537Z,59.71
2023-04-28T21:37:34.966Z,59.10
2023-04-28T21:40:01.936Z,59.22
2023-04-28T21:42:31.625Z,59.45
2023-04-28T21:44:58.341Z,59.17
2023-04-28T21:47:24.659Z,58.74
2023-04-28T21:49:51.319Z,57.52
2023-04-28T21:52:17.730Z,58.26
2023-04-28T21:54:44.016Z,58.19
2023-04-28T21:57:10.324Z,58.18
2023-04-28T21:59:36.684Z,57.92
2023-04-28T22:02:03.103Z,58.12
2023-04-28T22:04:29.532Z,58.36
2023-04-28T22:06:55.972Z,58.06
2023-04-28T22:09:22.370Z,57.64
2023-04-28T22:11:48.665Z,57.50
2023-04-28T22:14:34.952Z,56.98
2023-04-28T22:17:02.010Z,57.25
2023-04-28T22:19:28.296Z,58.47
2023-04-28T22:21:54.631Z,58.22
2023-04-28T22:24:20.955Z,57.74
2023-04-28T22:26:47.309Z,58.10
2023-04-28T22:29:13.605Z,57.71
2023-04-28T22:31:40.005Z,56.93
2023-04-28T22:34:09.726Z,56.79
2023-04-28T22:36:36.956Z,57.13
2023-04-28T22:39:05.193Z,56.76
2023-04-28T22:41:31.485Z,58.56
2023-04-28T22:43:57.859Z,57.53
2023-04-28T22:46:24.276Z,57.49
2023-04-28T22:48:50.947Z,57.91
2023-04-28T22:51:17.258Z,57.21
2023-04-28T22:53:43.575Z,57.05
2023-04-28T22:56:10.025Z,57.76
2023-04-28T22:58:36.308Z,57.60
2023-04-28T23:01:04.231Z,58.83
2023-04-28T23:03:30.696Z,58.50
2023-04-28T23:05:57.042Z,58.97
2023-04-28T23:08:23.335Z,59.24
2023-04-28T23:10:49.640Z,58.79
2023-04-28T23:13:16.147Z,58.11
2023-04-28T23:15:42.713Z,59.28
2023-04-28T23:18:09.068Z,58.94
2023-04-28T23:20:35.397Z,58.94
2023-04-28T23:23:01.733Z,58.75
2023-04-28T23:25:28.045Z,58.07
2023-04-28T23:27:54.339Z,58.69
2023-04-28T23:30:20.680Z,58.41
2023-04-28T23:32:46.977Z,57.83
2023-04-28T23:35:13.910Z,57.36
2023-04-28T23:37:40.224Z,57.79
2023-04-28T23:40:06.921Z,58.07
2023-04-28T23:42:33.219Z,58.12
2023-04-28T23:45:01.368Z,59.09
2023-04-28T23:47:28.247Z,59.54
2023-04-28T23:49:54.571Z,59.62
2023-04-28T23:52:20.840Z,59.74
2023-04-28T23:54:47.143Z,59.82
2023-04-28T23:57:13.441Z,59.46
2023-04-28T23:59:39.752Z,58.89
